createdAt,value
2019-03-26T00:01:11.009Z,18.57
2019-03-26T00:04:05.764Z,13.25
2019-03-26T00:06:44.993Z,17.02
2019-03-26T00:09:30.803Z,12.78
2019-03-26T00:12:16.900Z,15.50
2019-03-26T00:15:03.019Z,15.20
2019-03-26T00:17:49.136Z,14.73
2019-03-26T00:20:35.078Z,20.27
2019-03-26T00:23:21.005Z,16.62
2019-03-26T00:26:06.946Z,18.75
2019-03-26T00:28:52.882Z,17.35
2019-03-26T00:31:38.726Z,15.25
2019-03-26T00:34:24.888Z,19.42
2019-03-26T00:37:10.738Z,15.45
2019-03-26T00:39:56.512Z,14.38
2019-03-26T00:42:42.305Z,15.25
2019-03-26T00:45:28.631Z,15.85
2019-03-26T00:48:14.588Z,17.17
2019-03-26T00:51:00.329Z,18.12
2019-03-26T00:53:48.093Z,15.58
2019-03-26T00:56:34.206Z,10.98
2019-03-26T00:59:25.120Z,15.32
2019-03-26T01:02:10.957Z,13.53
2019-03-26T01:04:57.002Z,13.90
2019-03-26T01:07:42.793Z,16.40
2019-03-26T01:10:28.689Z,14.28
2019-03-26T01:16:00.085Z,15.95
2019-03-26T01:18:45.925Z,14.28
2019-03-26T01:24:17.477Z,16.25
2019-03-26T01:27:03.268Z,14.85
2019-03-26T01:29:48.967Z,17.77
2019-03-26T01:32:34.772Z,12.15
2019-03-26T01:35:20.740Z,12.82
2019-03-26T01:38:06.601Z,16.67
2019-03-26T01:40:52.684Z,12.13
2019-03-26T01:46:23.897Z,14.13
2019-03-26T01:51:55.202Z,20.20
2019-03-26T01:54:41.058Z,15.85
2019-03-26T02:00:13.058Z,17.07
2019-03-26T02:03:03.990Z,12.18
2019-03-26T02:05:50.128Z,11.83
2019-03-26T02:08:39.120Z,16.93
2019-03-26T02:11:24.908Z,16.60
2019-03-26T02:14:10.861Z,13.75
2019-03-26T02:16:56.833Z,10.90
2019-03-26T02:19:42.869Z,13.53
2019-03-26T02:25:33.372Z,12.43
2019-03-26T02:28:19.333Z,11.65
2019-03-26T02:33:51.031Z,14.03
2019-03-26T02:36:37.041Z,11.12
2019-03-26T02:39:23.045Z,10.35
2019-03-26T02:42:08.911Z,9.60
2019-03-26T02:44:54.709Z,10.93
2019-03-26T02:47:40.589Z,11.18
2019-03-26T02:53:12.231Z,8.90
2019-03-26T02:55:58.087Z,12.90
2019-03-26T02:58:44.426Z,9.25
2019-03-26T03:01:30.720Z,11.68
2019-03-26T03:04:18.745Z,11.73
2019-03-26T03:07:04.919Z,14.10
2019-03-26T03:09:51.005Z,8.85
2019-03-26T03:12:36.851Z,11.33
2019-03-26T03:18:08.211Z,9.85
2019-03-26T03:20:54.117Z,7.42
2019-03-26T03:26:26.155Z,8.95
2019-03-26T03:29:11.907Z,10.25
2019-03-26T03:31:57.697Z,14.68
2019-03-26T03:34:43.657Z,8.63
2019-03-26T03:37:29.869Z,15.63
2019-03-26T03:40:15.704Z,11.78
2019-03-26T03:43:03.475Z,12.95
2019-03-26T03:45:49.806Z,11.00
2019-03-26T03:48:35.867Z,7.08
2019-03-26T03:51:21.782Z,10.68
2019-03-26T03:57:12.729Z,8.93
2019-03-26T03:59:58.757Z,9.55
2019-03-26T04:02:45.139Z,7.35
2019-03-26T04:05:31.297Z,10.08
2019-03-26T04:08:17.291Z,8.83
2019-03-26T04:13:48.540Z,9.88
2019-03-26T04:16:34.540Z,8.48
2019-03-26T04:19:20.398Z,10.70
2019-03-26T04:22:06.338Z,12.18
2019-03-26T04:24:52.589Z,9.40
2019-03-26T04:27:38.481Z,9.75
2019-03-26T04:30:28.568Z,7.70
2019-03-26T04:33:14.469Z,7.83
2019-03-26T04:36:00.425Z,10.15
2019-03-26T04:38:46.399Z,7.62
2019-03-26T04:44:17.808Z,7.28
2019-03-26T04:47:03.653Z,9.13
2019-03-26T04:49:49.462Z,12.25
2019-03-26T04:52:35.335Z,9.03
2019-03-26T04:55:21.265Z,10.93
2019-03-26T04:58:07.152Z,10.10
2019-03-26T05:00:53.416Z,13.60
2019-03-26T05:03:39.601Z,10.48
2019-03-26T05:06:37.501Z,10.05
2019-03-26T05:09:13.269Z,11.78
2019-03-26T05:11:59.225Z,11.75
2019-03-26T05:14:45.205Z,11.78
2019-03-26T05:17:31.006Z,11.80
2019-03-26T05:20:16.913Z,8.95
2019-03-26T05:25:48.424Z,9.43
2019-03-26T05:28:34.437Z,6.22
2019-03-26T05:31:20.315Z,9.90
2019-03-26T05:36:51.963Z,11.83
2019-03-26T05:39:38.353Z,11.63
2019-03-26T05:42:24.005Z,14.15
2019-03-26T05:45:09.901Z,14.10
2019-03-26T05:47:55.928Z,13.50
2019-03-26T05:50:42.001Z,13.80
2019-03-26T05:53:27.749Z,11.12
2019-03-26T05:56:13.582Z,11.85
2019-03-26T05:59:01.434Z,11.85
2019-03-26T06:01:47.582Z,10.63
2019-03-26T06:04:33.516Z,12.75
2019-03-26T06:07:19.389Z,9.58
2019-03-26T06:12:51.806Z,12.60
2019-03-26T06:18:23.047Z,14.25
2019-03-26T06:21:08.916Z,11.88
2019-03-26T06:23:54.741Z,13.30
2019-03-26T06:26:41.780Z,11.22
2019-03-26T06:29:46.856Z,11.35
2019-03-26T06:32:32.801Z,13.68
2019-03-26T06:38:04.457Z,14.80
2019-03-26T06:40:50.338Z,10.25
2019-03-26T06:43:36.552Z,10.78
2019-03-26T06:46:23.774Z,11.48
2019-03-26T06:49:10.138Z,8.98
2019-03-26T06:52:17.631Z,12.33
2019-03-26T06:55:04.287Z,12.53
2019-03-26T06:57:51.396Z,11.22
2019-03-26T07:00:37.150Z,17.57
2019-03-26T07:03:23.346Z,14.23
2019-03-26T07:06:09.561Z,17.65
2019-03-26T07:11:40.927Z,17.65
2019-03-26T07:14:27.002Z,19.67
2019-03-26T07:19:58.314Z,18.00
2019-03-26T07:25:29.966Z,20.37
2019-03-26T07:28:15.694Z,19.20
2019-03-26T07:33:47.293Z,18.05
2019-03-26T07:36:33.140Z,19.82
2019-03-26T07:39:18.917Z,17.12
2019-03-26T07:42:04.798Z,13.30
2019-03-26T07:44:52.574Z,15.05
2019-03-26T07:47:38.401Z,14.25
2019-03-26T07:50:24.212Z,20.60
2019-03-26T07:53:10.222Z,14.93
2019-03-26T07:55:56.096Z,12.23
2019-03-26T07:58:42.027Z,16.82
2019-03-26T08:01:27.922Z,18.52
2019-03-26T08:04:13.723Z,15.30
2019-03-26T08:09:47.038Z,15.30
2019-03-26T08:12:33.030Z,18.02
2019-03-26T08:15:20.797Z,21.48
2019-03-26T08:18:06.826Z,19.23
2019-03-26T08:20:52.658Z,15.93
2019-03-26T08:23:38.642Z,25.97
2019-03-26T08:26:24.700Z,16.32
2019-03-26T08:29:11.021Z,14.35
2019-03-26T08:31:56.883Z,18.40
2019-03-26T08:34:42.795Z,14.23
2019-03-26T08:37:29.137Z,17.00
2019-03-26T08:40:15.048Z,22.52
2019-03-26T08:43:00.854Z,19.60
2019-03-26T08:48:33.828Z,14.05
2019-03-26T08:51:22.656Z,18.25
2019-03-26T08:54:08.636Z,17.55
2019-03-26T08:56:54.497Z,17.62
2019-03-26T08:59:40.341Z,16.75
2019-03-26T09:02:26.302Z,19.23
2019-03-26T09:05:31.709Z,19.00
2019-03-26T09:08:25.410Z,15.05
2019-03-26T09:11:07.021Z,15.90
2019-03-26T09:13:53.305Z,18.95
2019-03-26T09:19:24.575Z,16.77
2019-03-26T09:22:10.654Z,17.77
2019-03-26T09:24:56.929Z,21.23
2019-03-26T09:27:43.028Z,18.40
2019-03-26T09:30:28.760Z,17.92
2019-03-26T09:33:14.612Z,17.25
2019-03-26T09:38:46.601Z,16.73
2019-03-26T09:41:32.630Z,20.95
2019-03-26T09:44:18.395Z,17.48
2019-03-26T09:47:15.620Z,19.02
2019-03-26T09:49:52.460Z,18.00
2019-03-26T09:52:40.369Z,18.00
2019-03-26T09:55:26.330Z,17.42
2019-03-26T10:00:57.583Z,16.23
2019-03-26T10:03:43.439Z,16.07
2019-03-26T10:09:15.006Z,13.75
2019-03-26T10:12:00.862Z,20.48
2019-03-26T10:14:46.726Z,11.60
2019-03-26T10:17:32.898Z,15.93
2019-03-26T10:20:19.588Z,18.05
2019-03-26T10:23:05.772Z,15.20
2019-03-26T10:25:52.362Z,22.37
2019-03-26T10:28:41.366Z,17.17
2019-03-26T10:31:27.980Z,16.62
2019-03-26T10:34:15.505Z,17.70
2019-03-26T10:37:01.477Z,14.43
2019-03-26T10:39:50.385Z,17.15
2019-03-26T10:42:36.849Z,16.40
2019-03-26T10:45:25.634Z,18.77
2019-03-26T10:48:11.752Z,19.75
2019-03-26T10:50:57.517Z,15.13
2019-03-26T10:53:43.496Z,16.45
2019-03-26T10:56:32.533Z,23.60
2019-03-26T10:59:17.678Z,20.40
2019-03-26T11:02:03.536Z,14.23
2019-03-26T11:04:49.365Z,20.08
2019-03-26T11:07:35.237Z,14.60
2019-03-26T11:10:21.206Z,18.20
2019-03-26T11:13:06.950Z,18.52
2019-03-26T11:15:52.842Z,19.70
2019-03-26T11:21:24.224Z,20.57
2019-03-26T11:24:10.172Z,21.73
2019-03-26T11:29:41.540Z,18.75
2019-03-26T11:35:13.179Z,21.52
2019-03-26T11:37:59.706Z,19.52
2019-03-26T11:40:47.092Z,18.70
2019-03-26T11:43:43.245Z,16.48
2019-03-26T11:46:30.493Z,19.77
2019-03-26T11:49:21.188Z,18.80
2019-03-26T11:52:08.306Z,17.25
2019-03-26T11:54:54.381Z,17.15
2019-03-26T12:00:34.483Z,22.25
2019-03-26T12:03:25.887Z,17.12
2019-03-26T12:06:18.469Z,16.77
2019-03-26T12:09:10.257Z,18.57
2019-03-26T12:11:57.826Z,23.52
2019-03-26T12:14:45.072Z,20.43
2019-03-26T12:17:35.160Z,17.65
2019-03-26T12:20:21.189Z,19.73
2019-03-26T12:25:52.477Z,18.57
2019-03-26T12:28:38.317Z,16.23
2019-03-26T12:31:24.149Z,20.70
2019-03-26T12:36:55.657Z,18.37
2019-03-26T12:39:44.132Z,19.77
2019-03-26T12:42:29.450Z,18.35
2019-03-26T12:45:15.372Z,18.65
2019-03-26T12:48:02.688Z,15.65
2019-03-26T12:50:48.812Z,18.65
2019-03-26T12:53:34.738Z,15.13
2019-03-26T12:56:20.646Z,14.33
2019-03-26T12:59:06.482Z,16.65
2019-03-26T13:01:52.233Z,17.23
2019-03-26T13:07:24.461Z,17.10
2019-03-26T13:10:14.182Z,21.12
2019-03-26T13:12:58.468Z,14.75
2019-03-26T13:15:45.499Z,18.57
2019-03-26T13:18:31.239Z,18.23
2019-03-26T13:24:02.654Z,12.70
2019-03-26T13:26:49.141Z,14.93
2019-03-26T13:29:35.523Z,14.25
2019-03-26T13:32:21.333Z,25.52
2019-03-26T13:35:07.468Z,16.17
2019-03-26T13:37:53.894Z,22.10
2019-03-26T13:40:40.098Z,17.82
2019-03-26T13:46:11.249Z,19.70
2019-03-26T13:48:57.204Z,16.62
2019-03-26T13:51:43.033Z,19.27
2019-03-26T13:54:31.741Z,19.95
2019-03-26T13:57:17.538Z,14.10
2019-03-26T14:00:03.732Z,20.32
2019-03-26T14:02:49.872Z,17.90
2019-03-26T14:05:35.837Z,17.27
2019-03-26T14:08:21.667Z,23.02
2019-03-26T14:11:07.641Z,18.60
2019-03-26T14:16:39.063Z,17.12
2019-03-26T14:19:24.995Z,21.17
2019-03-26T14:22:10.786Z,17.62
2019-03-26T14:24:56.590Z,15.88
2019-03-26T14:30:47.112Z,17.55
2019-03-26T14:33:33.372Z,14.05
2019-03-26T14:39:06.153Z,20.37
2019-03-26T14:41:52.426Z,18.10
2019-03-26T14:47:24.097Z,20.32
2019-03-26T14:50:10.409Z,21.07
2019-03-26T14:55:42.591Z,20.32
2019-03-26T14:58:28.419Z,21.62
2019-03-26T15:01:14.250Z,16.80
2019-03-26T15:04:00.234Z,21.50
2019-03-26T15:09:31.628Z,23.57
2019-03-26T15:12:17.524Z,20.23
2019-03-26T15:15:04.105Z,23.22
2019-03-26T15:17:50.493Z,21.73
2019-03-26T15:20:37.486Z,23.20
2019-03-26T15:23:23.518Z,22.37
2019-03-26T15:26:10.032Z,17.23
2019-03-26T15:31:42.077Z,21.77
2019-03-26T15:34:36.154Z,26.23
2019-03-26T15:37:17.354Z,21.00
2019-03-26T15:40:04.326Z,23.05
2019-03-26T15:42:50.116Z,23.20
2019-03-26T15:45:36.109Z,19.07
2019-03-26T15:48:21.949Z,24.47
2019-03-26T15:51:07.776Z,25.40
2019-03-26T15:56:39.216Z,24.20
2019-03-26T15:59:44.560Z,20.85
2019-03-26T16:02:30.482Z,25.57
2019-03-26T16:05:16.265Z,18.57
2019-03-26T16:10:47.802Z,22.13
2019-03-26T16:13:35.780Z,23.80
2019-03-26T16:16:21.447Z,22.90
2019-03-26T16:19:07.293Z,27.35
2019-03-26T16:21:53.305Z,28.80
2019-03-26T16:24:39.129Z,24.20
2019-03-26T16:27:25.077Z,25.08
2019-03-26T16:32:56.292Z,26.33
2019-03-26T16:35:42.187Z,29.55
2019-03-26T16:38:27.945Z,28.73
2019-03-26T16:41:13.849Z,23.32
2019-03-26T16:43:59.681Z,27.22
2019-03-26T16:46:45.569Z,24.75
2019-03-26T16:49:31.842Z,26.97
2019-03-26T16:52:17.992Z,29.07
2019-03-26T16:58:08.651Z,24.43
2019-03-26T17:00:54.400Z,25.15
2019-03-26T17:06:25.937Z,26.87
2019-03-26T17:09:12.131Z,29.30
2019-03-26T17:12:03.474Z,29.50
2019-03-26T17:14:46.258Z,25.72
2019-03-26T17:17:33.372Z,19.80
2019-03-26T17:20:19.306Z,28.47
2019-03-26T17:23:05.166Z,25.88
2019-03-26T17:25:51.276Z,23.00
2019-03-26T17:28:37.269Z,20.97
2019-03-26T17:31:23.449Z,23.07
2019-03-26T17:34:09.531Z,24.32
2019-03-26T17:36:55.499Z,27.02
2019-03-26T17:39:41.495Z,23.92
2019-03-26T17:42:27.297Z,25.05
2019-03-26T17:45:13.257Z,24.72
2019-03-26T17:50:44.589Z,19.40
2019-03-26T17:53:30.786Z,26.65
2019-03-26T17:56:16.966Z,24.98
2019-03-26T17:59:02.738Z,22.37
2019-03-26T18:01:48.710Z,20.68
2019-03-26T18:07:20.021Z,21.68
2019-03-26T18:10:05.977Z,25.55
2019-03-26T18:12:51.874Z,18.70
2019-03-26T18:15:38.600Z,19.02
2019-03-26T18:18:24.692Z,22.45
2019-03-26T18:21:10.593Z,22.60
2019-03-26T18:23:56.435Z,25.77
2019-03-26T18:26:42.599Z,18.98
2019-03-26T18:29:28.642Z,21.80
2019-03-26T18:32:14.535Z,16.35
2019-03-26T18:35:00.437Z,18.20
2019-03-26T18:37:46.235Z,19.32
2019-03-26T18:43:17.521Z,17.92
2019-03-26T18:48:48.970Z,20.02
2019-03-26T18:51:34.649Z,24.30
2019-03-26T18:54:20.904Z,21.65
2019-03-26T18:59:52.436Z,18.42
2019-03-26T19:02:38.161Z,21.57
2019-03-26T19:05:24.220Z,18.12
2019-03-26T19:08:09.957Z,16.93
2019-03-26T19:10:56.217Z,19.12
2019-03-26T19:13:42.281Z,23.27
2019-03-26T19:19:13.468Z,20.02
2019-03-26T19:21:59.282Z,18.60
2019-03-26T19:24:45.051Z,17.55
2019-03-26T19:27:33.516Z,16.32
2019-03-26T19:30:19.624Z,16.77
2019-03-26T19:33:05.641Z,15.68
2019-03-26T19:35:51.444Z,15.83
2019-03-26T19:41:22.688Z,19.70
2019-03-26T19:44:08.640Z,17.87
2019-03-26T19:46:54.410Z,16.57
2019-03-26T19:49:40.276Z,16.67
2019-03-26T19:55:11.786Z,18.60
2019-03-26T19:57:57.781Z,18.62
2019-03-26T20:00:43.625Z,17.95
2019-03-26T20:03:32.579Z,17.27
2019-03-26T20:06:18.510Z,16.67
2019-03-26T20:09:05.449Z,20.00
2019-03-26T20:11:51.364Z,16.35
2019-03-26T20:14:37.269Z,18.98
2019-03-26T20:20:08.744Z,18.00
2019-03-26T20:25:39.995Z,18.15
2019-03-26T20:28:26.866Z,17.70
2019-03-26T20:31:13.454Z,18.15
2019-03-26T20:33:59.382Z,14.78
2019-03-26T20:36:45.234Z,18.60
2019-03-26T20:39:31.142Z,14.70
2019-03-26T20:42:16.946Z,18.60
2019-03-26T20:45:03.382Z,14.75
2019-03-26T20:47:49.318Z,18.82
2019-03-26T20:50:35.187Z,14.10
2019-03-26T20:56:06.749Z,15.75
2019-03-26T20:58:53.102Z,15.90
2019-03-26T21:04:24.516Z,12.78
2019-03-26T21:09:57.616Z,15.72
2019-03-26T21:12:43.469Z,16.85
2019-03-26T21:18:14.998Z,11.60
2019-03-26T21:21:00.866Z,12.85
2019-03-26T21:23:48.377Z,11.90
2019-03-26T21:26:35.424Z,17.25
2019-03-26T21:29:23.191Z,13.25
2019-03-26T21:32:15.581Z,14.43
2019-03-26T21:35:00.363Z,14.80
2019-03-26T21:37:46.559Z,13.72
2019-03-26T21:40:32.590Z,14.80
2019-03-26T21:43:21.032Z,11.97
2019-03-26T21:46:07.540Z,12.47
2019-03-26T21:48:53.930Z,10.32
2019-03-26T21:51:40.255Z,11.10
2019-03-26T21:54:28.485Z,13.53
2019-03-26T21:57:14.424Z,18.92
2019-03-26T22:02:45.718Z,10.72
2019-03-26T22:08:17.044Z,13.65
2019-03-26T22:11:02.904Z,10.53
2019-03-26T22:16:34.200Z,10.50
2019-03-26T22:19:28.540Z,12.07
2019-03-26T22:22:08.236Z,16.77
2019-03-26T22:24:54.031Z,13.05
2019-03-26T22:27:41.214Z,12.00
2019-03-26T22:30:27.456Z,10.80
2019-03-26T22:33:13.256Z,14.23
2019-03-26T22:35:59.190Z,11.40
2019-03-26T22:38:45.284Z,13.32
2019-03-26T22:41:32.598Z,10.03
2019-03-26T22:44:30.856Z,11.88
2019-03-26T22:47:06.896Z,11.35
2019-03-26T22:49:57.179Z,11.10
2019-03-26T22:52:41.776Z,13.68
2019-03-26T22:55:27.960Z,12.75
2019-03-26T22:58:13.814Z,10.63
2019-03-26T23:00:59.784Z,10.90
2019-03-26T23:03:45.608Z,12.18
2019-03-26T23:06:31.549Z,14.85
2019-03-26T23:12:02.869Z,11.43
2019-03-26T23:14:51.064Z,8.15
2019-03-26T23:17:36.907Z,9.73
2019-03-26T23:20:22.708Z,10.18
2019-03-26T23:23:08.704Z,9.88
2019-03-26T23:28:39.884Z,13.95
2019-03-26T23:31:25.891Z,13.48
2019-03-26T23:34:11.673Z,9.78
2019-03-26T23:36:57.446Z,11.97
2019-03-26T23:42:28.868Z,8.25
2019-03-26T23:48:00.096Z,13.60
2019-03-26T23:50:46.017Z,9.48
2019-03-26T23:53:31.991Z,10.28
2019-03-26T23:56:17.797Z,10.25
2019-03-26T23:59:03.677Z,10.25
